createdAt,value
2022-08-09T00:01:10.744Z,1.87
2022-08-09T00:04:03.505Z,2.20
2022-08-09T00:06:30.513Z,1.90
2022-08-09T00:08:58.843Z,2.00
2022-08-09T00:12:03.950Z,2.33
2022-08-09T00:14:21.802Z,2.33
2022-08-09T00:16:54.900Z,2.17
2022-08-09T00:19:21.639Z,2.43
2022-08-09T00:21:56.055Z,2.50
2022-08-09T00:24:25.201Z,2.50
2022-08-09T00:26:54.465Z,2.30
2022-08-09T00:29:39.685Z,2.50
2022-08-09T00:32:07.800Z,2.27
2022-08-09T00:34:39.404Z,2.63
2022-08-09T00:37:13.182Z,2.57
2022-08-09T00:40:13.459Z,2.30
2022-08-09T00:44:10.586Z,2.97
2022-08-09T00:45:16.188Z,2.50
2022-08-09T00:47:43.467Z,2.67
2022-08-09T00:50:14.454Z,2.67
2022-08-09T00:52:42.461Z,2.40
2022-08-09T00:55:10.319Z,2.37
2022-08-09T00:57:59.275Z,2.33
2022-08-09T01:00:27.701Z,2.80
2022-08-09T01:03:16.768Z,2.60
2022-08-09T01:06:13.929Z,2.70
2022-08-09T01:09:09.605Z,2.63
2022-08-09T01:12:01.424Z,2.90
2022-08-09T01:14:42.959Z,3.20
2022-08-09T01:17:17.995Z,4.33
2022-08-09T01:20:05.862Z,4.23
2022-08-09T01:22:39.822Z,3.87
2022-08-09T01:25:41.768Z,3.60
2022-08-09T01:28:09.960Z,3.40
2022-08-09T01:30:51.650Z,3.23
2022-08-09T01:33:24.028Z,3.10
2022-08-09T01:35:57.272Z,3.20
2022-08-09T01:38:30.799Z,3.27
2022-08-09T01:41:13.273Z,2.67
2022-08-09T01:43:51.672Z,3.17
2022-08-09T01:46:32.549Z,3.07
2022-08-09T01:49:10.236Z,3.53
2022-08-09T01:51:44.238Z,3.43
2022-08-09T01:54:13.765Z,3.30
2022-08-09T01:56:47.131Z,3.30
2022-08-09T01:59:21.372Z,3.50
2022-08-09T02:01:59.576Z,3.23
2022-08-09T02:04:29.684Z,3.80
2022-08-09T02:07:18.026Z,3.63
2022-08-09T02:10:04.133Z,3.77
2022-08-09T02:12:33.470Z,3.80
2022-08-09T02:15:06.379Z,3.73
2022-08-09T02:17:59.870Z,4.10
2022-08-09T02:20:32.913Z,3.57
2022-08-09T02:23:10.137Z,3.50
2022-08-09T02:25:42.226Z,3.70
2022-08-09T02:28:17.946Z,3.57
2022-08-09T02:30:53.282Z,3.33
2022-08-09T02:33:58.124Z,3.53
2022-08-09T02:36:21.802Z,3.50
2022-08-09T02:38:55.585Z,3.60
2022-08-09T02:41:32.483Z,3.33
2022-08-09T02:44:10.568Z,3.10
2022-08-09T02:46:52.226Z,3.30
2022-08-09T02:49:19.772Z,3.70
2022-08-09T02:51:57.658Z,3.40
2022-08-09T02:54:28.458Z,3.10
2022-08-09T02:57:13.596Z,3.37
2022-08-09T03:00:21.588Z,3.30
2022-08-09T03:02:39.082Z,3.30
2022-08-09T03:05:25.863Z,3.50
2022-08-09T03:07:55.085Z,3.00
2022-08-09T03:10:24.152Z,3.53
2022-08-09T03:12:52.710Z,3.40
2022-08-09T03:15:22.982Z,3.40
2022-08-09T03:17:57.901Z,3.30
2022-08-09T03:20:29.646Z,3.33
2022-08-09T03:23:14.600Z,3.80
2022-08-09T03:25:58.930Z,3.40
2022-08-09T03:28:31.003Z,3.67
2022-08-09T03:30:58.894Z,3.53
2022-08-09T03:33:54.302Z,3.70
2022-08-09T03:36:16.775Z,3.43
2022-08-09T03:38:44.811Z,3.67
2022-08-09T03:41:16.675Z,4.60
2022-08-09T03:44:03.442Z,4.33
2022-08-09T03:46:33.949Z,4.83
2022-08-09T03:49:07.930Z,3.80
2022-08-09T03:51:55.371Z,4.43
2022-08-09T03:54:30.950Z,4.37
2022-08-09T03:57:00.758Z,4.00
2022-08-09T03:59:53.265Z,3.93
2022-08-09T04:02:14.594Z,3.80
2022-08-09T04:04:45.587Z,3.53
2022-08-09T04:07:14.474Z,3.90
2022-08-09T04:09:50.200Z,3.63
2022-08-09T04:12:45.588Z,4.27
2022-08-09T04:15:29.360Z,4.10
2022-08-09T04:18:02.802Z,4.10
2022-08-09T04:20:29.707Z,4.20
2022-08-09T04:22:59.762Z,3.60
2022-08-09T04:25:26.446Z,4.10
2022-08-09T04:27:53.225Z,3.90
2022-08-09T04:30:26.001Z,3.50
2022-08-09T04:32:55.554Z,4.33
2022-08-09T04:35:22.270Z,4.80
2022-08-09T04:37:50.665Z,5.13
2022-08-09T04:40:28.517Z,4.47
2022-08-09T04:43:15.220Z,5.43
2022-08-09T04:48:36.034Z,5.93
2022-08-09T04:51:04.845Z,5.40
2022-08-09T04:53:31.689Z,5.80
2022-08-09T04:55:59.640Z,5.70
2022-08-09T04:58:28.051Z,6.13
2022-08-09T05:00:57.513Z,5.73
2022-08-09T05:03:40.362Z,5.60
2022-08-09T05:06:21.994Z,5.40
2022-08-09T05:09:00.235Z,4.77
2022-08-09T05:11:30.519Z,5.20
2022-08-09T05:13:59.634Z,4.80
2022-08-09T05:16:31.710Z,5.10
2022-08-09T05:19:00.413Z,5.23
2022-08-09T05:21:29.973Z,4.73
2022-08-09T05:24:01.895Z,4.73
2022-08-09T05:26:36.837Z,4.53
2022-08-09T05:29:17.308Z,4.90
2022-08-09T05:31:46.719Z,4.97
2022-08-09T05:34:17.420Z,4.77
2022-08-09T05:36:47.133Z,4.97
2022-08-09T05:39:29.333Z,4.27
2022-08-09T05:42:01.530Z,4.30
2022-08-09T05:44:32.896Z,5.20
2022-08-09T05:47:04.969Z,4.73
2022-08-09T05:50:24.209Z,4.30
2022-08-09T05:52:20.295Z,4.27
2022-08-09T05:54:49.134Z,4.47
2022-08-09T05:57:17.569Z,4.03
2022-08-09T05:59:45.945Z,4.20
2022-08-09T06:02:17.133Z,4.07
2022-08-09T06:04:46.100Z,3.60
2022-08-09T06:07:21.190Z,3.50
2022-08-09T06:10:01.928Z,3.67
2022-08-09T06:12:31.029Z,3.47
2022-08-09T06:15:01.345Z,3.17
2022-08-09T06:17:38.937Z,3.03
2022-08-09T06:20:06.311Z,2.63
2022-08-09T06:22:33.181Z,3.10
2022-08-09T06:25:00.020Z,2.80
2022-08-09T06:27:26.644Z,2.63
2022-08-09T06:30:14.219Z,2.97
2022-08-09T06:32:59.583Z,2.60
2022-08-09T06:35:56.586Z,2.07
2022-08-09T06:38:15.890Z,1.83
2022-08-09T06:40:43.165Z,1.58
2022-08-09T06:43:10.474Z,1.80
2022-08-09T06:46:06.381Z,1.38
2022-08-09T06:48:30.446Z,1.30
2022-08-09T06:50:59.865Z,1.35
2022-08-09T06:53:27.054Z,1.30
2022-08-09T06:56:00.461Z,1.13
2022-08-09T07:00:48.829Z,1.20
2022-08-09T07:04:04.397Z,1.27
2022-08-09T07:06:31.579Z,1.10
2022-08-09T07:08:58.330Z,1.30
2022-08-09T07:11:25.567Z,1.40
2022-08-09T07:14:06.090Z,1.48
2022-08-09T07:16:41.951Z,1.40
2022-08-09T07:19:23.200Z,1.70
2022-08-09T07:21:57.332Z,1.60
2022-08-09T07:24:32.918Z,1.88
2022-08-09T07:27:10.994Z,1.60
2022-08-09T07:29:59.712Z,1.50
2022-08-09T07:32:33.527Z,1.40
2022-08-09T07:35:12.685Z,1.63
2022-08-09T07:37:45.868Z,1.75
2022-08-09T07:40:17.091Z,1.65
2022-08-09T07:42:54.242Z,1.67
2022-08-09T07:45:38.007Z,1.92
2022-08-09T07:48:07.522Z,2.00
2022-08-09T07:51:10.115Z,1.52
2022-08-09T07:54:04.340Z,1.58
2022-08-09T07:56:27.816Z,1.73
2022-08-09T07:58:59.567Z,1.60
2022-08-09T08:01:33.056Z,1.38
2022-08-09T08:04:01.670Z,1.50
2022-08-09T08:06:32.121Z,1.65
2022-08-09T08:09:05.005Z,1.70
2022-08-09T08:12:10.886Z,1.80
2022-08-09T08:14:24.237Z,1.60
2022-08-09T08:17:07.773Z,2.30
2022-08-09T08:19:35.834Z,1.85
2022-08-09T08:22:03.569Z,1.70
2022-08-09T08:24:40.229Z,1.70
2022-08-09T08:27:17.089Z,1.50
2022-08-09T08:29:49.983Z,1.63
2022-08-09T08:32:28.754Z,1.63
2022-08-09T08:35:06.673Z,1.90
2022-08-09T08:37:41.295Z,1.50
2022-08-09T08:40:20.493Z,1.70
2022-08-09T08:42:47.614Z,1.90
2022-08-09T08:45:15.888Z,1.88
2022-08-09T08:47:44.912Z,1.70
2022-08-09T08:50:18.215Z,1.60
2022-08-09T08:52:57.566Z,1.65
2022-08-09T08:55:27.311Z,1.80
2022-08-09T08:57:57.174Z,1.60
2022-08-09T09:00:27.963Z,1.48
2022-08-09T09:03:12.484Z,1.48
2022-08-09T09:06:03.044Z,1.70
2022-08-09T09:08:42.148Z,1.50
2022-08-09T09:11:13.660Z,1.55
2022-08-09T09:13:55.904Z,1.33
2022-08-09T09:16:35.094Z,1.70
2022-08-09T09:22:23.819Z,1.10
2022-08-09T09:25:27.721Z,1.48
2022-08-09T09:28:05.530Z,1.65
2022-08-09T09:30:39.889Z,1.35
2022-08-09T09:33:15.757Z,1.10
2022-08-09T09:36:02.653Z,1.55
2022-08-09T09:38:52.257Z,1.60
2022-08-09T09:41:32.607Z,1.58
2022-08-09T09:44:12.960Z,1.42
2022-08-09T09:46:51.570Z,1.30
2022-08-09T09:49:56.498Z,1.40
2022-08-09T09:52:37.028Z,1.55
2022-08-09T09:55:24.047Z,1.33
2022-08-09T09:58:02.644Z,1.77
2022-08-09T10:00:31.228Z,1.40
2022-08-09T10:02:59.530Z,1.30
2022-08-09T10:05:27.074Z,1.50
2022-08-09T10:08:27.154Z,1.15
2022-08-09T10:10:54.902Z,1.10
2022-08-09T10:13:24.597Z,1.23
2022-08-09T10:16:56.923Z,1.20
2022-08-09T10:18:59.791Z,1.40
2022-08-09T10:21:27.417Z,1.40
2022-08-09T10:23:57.000Z,1.42
2022-08-09T10:26:26.805Z,1.10
2022-08-09T10:29:37.578Z,1.30
2022-08-09T10:34:33.431Z,1.15
2022-08-09T10:37:02.536Z,1.40
2022-08-09T10:39:30.484Z,1.50
2022-08-09T10:42:07.811Z,1.40
2022-08-09T10:44:39.719Z,1.20
2022-08-09T10:48:16.332Z,1.33
2022-08-09T10:50:06.912Z,1.50
2022-08-09T10:53:10.083Z,1.23
2022-08-09T10:55:57.786Z,1.27
2022-08-09T10:58:35.157Z,1.30
2022-08-09T11:03:02.837Z,1.30
2022-08-09T11:04:30.289Z,1.20
2022-08-09T11:06:59.562Z,1.33
2022-08-09T11:09:41.305Z,1.50
2022-08-09T11:12:21.670Z,1.38
2022-08-09T11:15:19.263Z,1.30
2022-08-09T11:17:48.097Z,1.20
2022-08-09T11:20:39.897Z,1.02
2022-08-09T11:23:10.337Z,1.30
2022-08-09T11:25:47.259Z,1.13
2022-08-09T11:28:38.821Z,1.30
2022-08-09T11:31:50.407Z,1.10
2022-08-09T11:34:42.856Z,1.15
2022-08-09T11:37:18.400Z,1.40
2022-08-09T11:40:05.332Z,1.48
2022-08-09T11:42:48.777Z,1.15
2022-08-09T11:45:26.315Z,1.30
2022-08-09T11:48:19.470Z,1.20
2022-08-09T11:52:49.068Z,1.13
2022-08-09T11:53:58.835Z,1.17
2022-08-09T11:56:41.443Z,1.05
2022-08-09T11:59:11.767Z,1.10
2022-08-09T12:02:17.230Z,1.30
2022-08-09T12:04:32.451Z,1.20
2022-08-09T12:07:08.318Z,1.17
2022-08-09T12:09:36.238Z,1.45
2022-08-09T12:12:12.105Z,1.00
2022-08-09T12:15:03.827Z,1.10
2022-08-09T12:17:34.008Z,1.20
2022-08-09T12:20:23.168Z,1.10
2022-08-09T12:22:55.888Z,1.10
2022-08-09T12:25:36.703Z,1.00
2022-08-09T12:29:09.869Z,0.95
2022-08-09T12:31:59.181Z,1.10
2022-08-09T12:34:13.903Z,1.23
2022-08-09T12:36:58.902Z,1.30
2022-08-09T12:39:41.923Z,0.88
2022-08-09T12:42:11.131Z,1.05
2022-08-09T12:44:52.002Z,1.00
2022-08-09T12:47:23.050Z,0.93
2022-08-09T12:50:08.947Z,1.13
2022-08-09T12:53:09.329Z,1.17
2022-08-09T12:56:14.088Z,0.93
2022-08-09T12:58:24.109Z,1.30
2022-08-09T13:00:53.883Z,1.27
2022-08-09T13:03:53.061Z,1.08
2022-08-09T13:06:40.932Z,1.20
2022-08-09T13:09:24.613Z,1.00
2022-08-09T13:12:01.885Z,1.15
2022-08-09T13:14:42.859Z,1.67
2022-08-09T13:17:44.392Z,1.05
2022-08-09T13:20:14.435Z,0.75
2022-08-09T13:23:05.539Z,1.13
2022-08-09T13:25:54.811Z,1.00
2022-08-09T13:28:33.837Z,1.10
2022-08-09T13:32:13.981Z,1.17
2022-08-09T13:33:56.870Z,0.93
2022-08-09T13:36:40.441Z,5.97
2022-08-09T13:41:17.299Z,0.80
2022-08-09T13:42:13.537Z,1.00
2022-08-09T13:44:42.804Z,0.90
2022-08-09T13:47:29.131Z,0.73
2022-08-09T13:50:12.362Z,0.80
2022-08-09T13:52:40.177Z,0.82
2022-08-09T13:55:13.765Z,1.00
2022-08-09T13:57:56.332Z,1.10
2022-08-09T14:00:27.287Z,0.68
2022-08-09T14:03:03.016Z,1.00
2022-08-09T14:05:56.563Z,0.80
2022-08-09T14:08:29.744Z,0.80
2022-08-09T14:10:57.388Z,0.80
2022-08-09T14:14:15.833Z,0.63
2022-08-09T14:16:18.916Z,0.80
2022-08-09T14:18:50.295Z,0.68
2022-08-09T14:21:23.200Z,0.70
2022-08-09T14:23:56.904Z,0.70
2022-08-09T14:26:31.596Z,0.70
2022-08-09T14:30:04.028Z,1.10
2022-08-09T14:31:58.229Z,0.90
2022-08-09T14:34:33.138Z,0.75
2022-08-09T14:37:07.587Z,0.98
2022-08-09T14:39:46.609Z,0.80
2022-08-09T14:42:31.002Z,0.73
2022-08-09T14:46:39.755Z,0.93
2022-08-09T14:47:59.380Z,0.80
2022-08-09T14:50:53.946Z,0.70
2022-08-09T14:53:21.637Z,0.77
2022-08-09T14:55:50.491Z,1.08
2022-08-09T14:58:17.537Z,0.73
2022-08-09T15:00:48.574Z,0.95
2022-08-09T15:03:20.095Z,1.00
2022-08-09T15:05:51.442Z,0.70
2022-08-09T15:08:21.498Z,0.88
2022-08-09T15:11:01.503Z,1.13
2022-08-09T15:13:56.455Z,1.27
2022-08-09T15:16:19.613Z,0.85
2022-08-09T15:18:48.458Z,0.80
2022-08-09T15:21:54.742Z,1.02
2022-08-09T15:24:11.525Z,0.68
2022-08-09T15:26:46.012Z,0.80
2022-08-09T15:30:56.501Z,0.90
2022-08-09T15:32:00.536Z,0.63
2022-08-09T15:34:34.215Z,0.80
2022-08-09T15:37:04.230Z,0.90
2022-08-09T15:39:34.462Z,1.00
2022-08-09T15:42:15.533Z,0.80
2022-08-09T15:44:45.885Z,0.75
2022-08-09T15:47:14.592Z,0.70
2022-08-09T15:50:00.714Z,1.20
2022-08-09T15:52:31.724Z,0.80
2022-08-09T15:54:58.569Z,0.60
2022-08-09T15:57:35.951Z,1.00
2022-08-09T16:00:25.145Z,0.88
2022-08-09T16:02:54.766Z,0.90
2022-08-09T16:05:26.503Z,0.82
2022-08-09T16:08:15.284Z,0.90
2022-08-09T16:10:58.538Z,0.85
2022-08-09T16:14:02.681Z,0.95
2022-08-09T16:16:17.452Z,0.70
2022-08-09T16:18:46.804Z,0.70
2022-08-09T16:21:16.816Z,0.80
2022-08-09T16:23:54.961Z,0.70
2022-08-09T16:26:33.355Z,0.90
2022-08-09T16:29:10.487Z,0.80
2022-08-09T16:32:19.836Z,0.98
2022-08-09T16:34:25.167Z,0.80
2022-08-09T16:36:51.884Z,0.80
2022-08-09T16:39:19.448Z,1.00
2022-08-09T16:42:03.556Z,0.98
2022-08-09T16:44:32.282Z,0.80
2022-08-09T16:47:04.263Z,0.77
2022-08-09T16:50:29.231Z,0.80
2022-08-09T16:52:33.594Z,1.00
2022-08-09T16:55:00.458Z,1.00
2022-08-09T16:57:27.245Z,0.80
2022-08-09T17:00:15.017Z,1.05
2022-08-09T17:02:42.727Z,1.10
2022-08-09T17:05:14.291Z,0.90
2022-08-09T17:08:43.400Z,1.45
2022-08-09T17:10:33.884Z,1.00
2022-08-09T17:13:01.479Z,0.70
2022-08-09T17:15:30.999Z,1.00
2022-08-09T17:18:17.905Z,1.17
2022-08-09T17:20:54.031Z,0.80
2022-08-09T17:23:21.068Z,0.70
2022-08-09T17:25:53.108Z,1.05
2022-08-09T17:28:20.139Z,0.70
2022-08-09T17:30:47.558Z,1.25
2022-08-09T17:33:22.332Z,1.08
2022-08-09T17:35:50.191Z,0.88
2022-08-09T17:38:32.522Z,1.10
2022-08-09T17:41:01.345Z,0.95
2022-08-09T17:43:34.022Z,0.90
2022-08-09T17:46:09.203Z,1.08
2022-08-09T17:48:39.840Z,1.05
2022-08-09T17:51:18.412Z,0.93
2022-08-09T17:53:51.889Z,1.10
2022-08-09T17:56:27.568Z,0.95
2022-08-09T17:59:00.977Z,0.77
2022-08-09T18:01:57.972Z,1.17
2022-08-09T18:04:20.131Z,1.00
2022-08-09T18:06:54.127Z,0.80
2022-08-09T18:09:22.840Z,1.15
2022-08-09T18:12:14.823Z,0.95
2022-08-09T18:14:50.109Z,0.95
2022-08-09T18:17:27.115Z,1.17
2022-08-09T18:20:57.832Z,1.23
2022-08-09T18:23:04.960Z,0.80
2022-08-09T18:25:50.493Z,1.25
2022-08-09T18:30:39.573Z,0.90
2022-08-09T18:31:07.483Z,1.15
2022-08-09T18:33:34.407Z,1.30
2022-08-09T18:36:01.160Z,1.00
2022-08-09T18:38:28.030Z,1.30
2022-08-09T18:40:55.670Z,1.30
2022-08-09T18:43:23.201Z,1.08
2022-08-09T18:46:51.088Z,1.15
2022-08-09T18:48:37.273Z,1.08
2022-08-09T18:51:04.670Z,1.10
2022-08-09T18:53:59.746Z,1.10
2022-08-09T18:56:27.843Z,1.08
2022-08-09T18:58:56.709Z,1.10
2022-08-09T19:01:24.622Z,1.30
2022-08-09T19:03:54.585Z,1.15
2022-08-09T19:06:28.560Z,1.30
2022-08-09T19:09:02.733Z,1.70
2022-08-09T19:11:37.616Z,1.35
2022-08-09T19:14:06.559Z,1.50
2022-08-09T19:16:36.398Z,1.60
2022-08-09T19:19:21.464Z,1.40
2022-08-09T19:22:06.411Z,2.60
2022-08-09T19:24:38.295Z,9.50
2022-08-09T19:27:16.356Z,7.68
2022-08-09T19:30:22.987Z,7.47
2022-08-09T19:32:29.796Z,5.03
2022-08-09T19:34:58.410Z,4.40
2022-08-09T19:37:25.593Z,3.03
2022-08-09T19:40:04.707Z,2.78
2022-08-09T19:42:32.634Z,3.20
2022-08-09T19:44:59.549Z,2.00
2022-08-09T19:47:27.101Z,2.00
2022-08-09T19:50:06.831Z,1.70
2022-08-09T19:52:51.715Z,1.53
2022-08-09T19:55:30.617Z,1.60
2022-08-09T19:58:17.032Z,2.03
2022-08-09T20:00:46.836Z,1.97
2022-08-09T20:04:09.550Z,1.73
2022-08-09T20:06:03.944Z,1.90
2022-08-09T20:08:35.429Z,1.90
2022-08-09T20:11:04.376Z,1.70
2022-08-09T20:13:37.026Z,2.00
2022-08-09T20:16:38.603Z,1.60
2022-08-09T20:19:42.369Z,1.80
2022-08-09T20:21:56.588Z,1.90
2022-08-09T20:24:31.731Z,1.73
2022-08-09T20:27:02.705Z,1.60
2022-08-09T20:29:38.018Z,1.70
2022-08-09T20:32:32.891Z,2.00
2022-08-09T20:34:54.866Z,1.90
2022-08-09T20:37:22.613Z,2.03
2022-08-09T20:40:17.485Z,2.10
2022-08-09T20:42:37.843Z,2.13
2022-08-09T20:45:57.440Z,1.73
2022-08-09T20:47:53.018Z,2.13
2022-08-09T20:50:47.456Z,1.83
2022-08-09T20:53:21.184Z,1.80
2022-08-09T20:56:00.937Z,2.07
2022-08-09T20:58:32.559Z,1.83
2022-08-09T21:01:32.740Z,2.00
2022-08-09T21:05:49.565Z,2.00
2022-08-09T21:06:42.506Z,2.20
2022-08-09T21:09:13.591Z,2.80
2022-08-09T21:14:31.085Z,2.10
2022-08-09T21:16:59.412Z,2.03
2022-08-09T21:20:19.214Z,2.10
2022-08-09T21:22:35.882Z,2.00
2022-08-09T21:25:20.906Z,2.20
2022-08-09T21:27:52.168Z,2.20
2022-08-09T21:30:22.058Z,2.20
2022-08-09T21:32:49.695Z,2.00
2022-08-09T21:35:17.041Z,2.50
2022-08-09T21:37:58.557Z,2.33
2022-08-09T21:40:30.820Z,2.50
2022-08-09T21:43:04.203Z,2.30
2022-08-09T21:45:39.198Z,2.87
2022-08-09T21:48:07.628Z,2.50
2022-08-09T21:50:39.018Z,2.27
2022-08-09T21:53:24.078Z,2.10
2022-08-09T21:56:00.103Z,2.60
2022-08-09T21:58:31.095Z,2.63
2022-08-09T22:00:59.181Z,2.23
2022-08-09T22:03:26.326Z,1.90
2022-08-09T22:05:54.763Z,2.27
2022-08-09T22:08:25.517Z,2.07
2022-08-09T22:11:50.465Z,2.20
2022-08-09T22:13:43.301Z,2.10
2022-08-09T22:16:11.269Z,2.23
2022-08-09T22:18:52.948Z,2.43
2022-08-09T22:21:27.254Z,2.00
2022-08-09T22:24:01.570Z,2.03
2022-08-09T22:26:35.528Z,2.43
2022-08-09T22:29:09.222Z,2.03
2022-08-09T22:31:38.525Z,2.40
2022-08-09T22:34:14.976Z,2.30
2022-08-09T22:36:46.248Z,2.27
2022-08-09T22:39:47.318Z,2.53
2022-08-09T22:42:02.959Z,2.47
2022-08-09T22:44:33.122Z,2.50
2022-08-09T22:48:16.725Z,2.40
2022-08-09T22:49:48.089Z,2.93
2022-08-09T22:52:19.736Z,2.33
2022-08-09T22:54:47.528Z,2.53
2022-08-09T22:57:14.755Z,2.33
2022-08-09T22:59:56.251Z,2.60
2022-08-09T23:02:25.336Z,2.07
2022-08-09T23:04:54.723Z,2.23
2022-08-09T23:08:22.758Z,2.03
2022-08-09T23:10:31.064Z,2.27
2022-08-09T23:12:58.606Z,2.60
2022-08-09T23:15:26.449Z,2.27
2022-08-09T23:17:53.218Z,2.00
2022-08-09T23:20:19.966Z,2.43
2022-08-09T23:22:46.674Z,2.50
2022-08-09T23:25:13.661Z,2.40
2022-08-09T23:28:11.669Z,2.40
2022-08-09T23:30:28.128Z,2.00
2022-08-09T23:32:54.771Z,2.60
2022-08-09T23:35:21.839Z,2.40
2022-08-09T23:37:48.514Z,2.63
2022-08-09T23:40:17.071Z,2.40
2022-08-09T23:42:44.036Z,2.43
2022-08-09T23:45:11.226Z,2.97
2022-08-09T23:47:58.052Z,3.00
2022-08-09T23:50:24.850Z,2.90
2022-08-09T23:52:51.548Z,3.30
2022-08-09T23:55:18.368Z,3.70
2022-08-09T23:57:59.050Z,2.97
